Cushman Dam, Washington
Current Conditions -  °F | °C
As of 8:53 PM on Tuesday 25 Nov 2014 (Local Time) from KSHN Reporting Station
Overcast Overcast  
Wind Chill: 57°   Ceiling: 1200
Heat Index: 57°   Visibility: 8mi
Dew Point: 53°   Wind: 14mph
Humidity: 87%   Direction: 210°SSW
Pressure: 30.15"   Gusts: NA
Location:  47.4532°N, 123.173°W
Report Text: KSHN 260453Z AUTO 21012KT 8SM OVC012 14/12 A3015 RMK AO2 SLP213 T01390117
Loading
Personal Weather Stations






























Interactive Weather Map New forecast layout! Learn more

10-Day Weather Forecast

Advertisements
Track Severe Weather on mobile